NCAR-RAP Real-Time Weather Data

Output produced by METARs form (23 February 2020  02:37 UTC)
found at http://weather.rap.ucar.edu/surface/
 
KPKB 230153Z 19004KT 9SM CLR 01/M13 A3027 RMK AO2 SLP259 T00111128
KPKB 230053Z 19004KT 10SM CLR 02/M13 A3029 RMK AO2 SLP264 T00221128
KPKB 222353Z 22003KT 10SM CLR 06/M14 A3029 RMK AO2 SLP265 T00561139 10094 20056 55006
KPKB 222253Z 22004KT 10SM CLR 07/M13 A3029 RMK AO2 SLP264 T00721133
KPKB 222153Z 22011G16KT 200V270 10SM CLR 09/M14 A3029 RMK AO2 SLP264 T00891139
KPKB 222053Z 21007G14KT 10SM CLR 09/M13 A3031 RMK AO2 SLP270 T00891133 56019
KPKB 221953Z 27010KT 10SM CLR 09/M13 A3032 RMK AO2 SLP274 T00891133
KPKB 221853Z 18007KT 150V230 10SM CLR 08/M13 A3034 RMK AO2 SLP280 T00781128
KPKB 221753Z 18009KT 10SM CLR 06/M12 A3037 RMK AO2 SLP290 T00611117 10061 21067 58030
KPKB 221653Z VRB05KT 10SM CLR 04/M11 A3041 RMK AO2 SLP307 T00441111
KPKB 221553Z 23010KT 10SM CLR 02/M11 A3044 RMK AO2 SLP316 T00221111
KPKB 221453Z 23005KT 10SM CLR 00/M11 A3046 RMK AO2 SLP323 T00001106 50004
KPKB 221353Z 19007KT 10SM CLR M02/M10 A3046 RMK AO2 SLP326 T10221100
KPKB 221253Z 00000KT 10SM CLR M06/M12 A3045 RMK AO2 SLP322 T10561117
KPKB 221153Z 00000KT 10SM CLR M07/M13 A3044 RMK AO2 SLP320 T10671128 11033 21083 51012
KPKB 221053Z AUTO 00000KT 10SM CLR M07/M13 A3044 RMK AO2 SLP317 T10721128
KPKB 220953Z AUTO 00000KT 10SM CLR M05/M13 A3042 RMK AO2 SLP311 T10501128
KPKB 220853Z AUTO 19003KT 10SM CLR M06/M13 A3041 RMK AO2 SLP306 T10561128 58011
KPKB 220753Z AUTO 16003KT 10SM CLR M05/M13 A3043 RMK AO2 SLP314 T10501128
KPKB 220653Z AUTO 00000KT 10SM CLR M06/M12 A3044 RMK AO2 SLP318 T10561122
KPKB 220553Z AUTO 00000KT 10SM CLR M03/M13 A3044 RMK AO2 SLP319 T10331128 11006 21044 55018
KPKB 220453Z AUTO 17004KT 10SM CLR M04/M12 A3044 RMK AO2 SLP318 T10391122 400281106
KPKB 220353Z 18004KT 10SM CLR M03/M12 A3048 RMK AO2 SLP330 T10331122
KPKB 220253Z 00000KT 10SM CLR M02/M12 A3050 RMK AO2 SLP338 T10221122 55004
KPKB 220153Z 20006KT 10SM CLR M02/M13 A3049 RMK AO2 SLP337 T10221128
KPKB 220053Z 19005KT 10SM CLR M01/M13 A3051 RMK AO2 SLP343 T10111128
KPKB 212353Z 22004KT 10SM CLR M01/M13 A3051 RMK AO2 SLP344 T10111133 10028 21017 55005
KPKB 212253Z 24003KT 10SM CLR 01/M14 A3051 RMK AO2 SLP342 T00111139
KPKB 212153Z 25004KT 10SM CLR 02/M13 A3052 RMK AO2 SLP345 T00171133
KPKB 212053Z 25003KT 10SM CLR 02/M13 A3053 RMK AO2 SLP348 T00221128 56023
KPKB 211953Z 00000KT 10SM CLR 01/M13 A3054 RMK AO2 SLP353 T00111128
KPKB 211853Z VRB03KT 10SM CLR 01/M12 A3056 RMK AO2 SLP359 T00061122
KPKB 211753Z VRB04KT 10SM CLR M02/M13 A3060 RMK AO2 SLP373 T10171128 11006 21106 58012
KPKB 211653Z VRB03KT 10SM CLR M02/M13 A3063 RMK AO2 SLP382 T10171128
KPKB 211553Z 00000KT 10SM CLR M03/M13 A3062 RMK AO2 SLP380 T10331128
KPKB 211453Z 00000KT 10SM CLR M05/M13 A3063 RMK AO2 SLP387 T10501128 51014
KPKB 211353Z 00000KT 10SM CLR M07/M12 A3063 RMK AO2 SLP384 T10671117
KPKB 211253Z 00000KT 10SM CLR M10/M12 A3061 RMK AO2 SLP379 T11001122
KPKB 211153Z 00000KT 10SM CLR M11/M13 A3059 RMK AO2 SLP372 I1000 I6000 T11061133 11072 21106 53013
KPKB 211053Z AUTO 00000KT 10SM CLR M11/M13 A3057 RMK AO2 SLP363 T11061128
KPKB 210953Z AUTO 00000KT 10SM CLR M09/M13 A3056 RMK AO2 SLP359 T10941133
KPKB 210853Z AUTO 32003KT 10SM CLR M09/M13 A3055 RMK AO2 SLP357 T10941133 58003
KPKB 210753Z AUTO 34004KT 10SM CLR M08/M13 A3056 RMK AO2 SLP359 T10831133
KPKB 210653Z AUTO 34004KT 10SM CLR M08/M13 A3056 RMK AO2 SLP359 T10781133
KPKB 210553Z AUTO 36004KT 10SM CLR M07/M13 A3056 RMK AO2 SLP359 T10721133 11022 21072 51006
KPKB 210453Z AUTO 35007KT 10SM CLR M07/M13 A3056 RMK AO2 SLP359 T10671133 400281067
KPKB 210353Z 34006KT 10SM CLR M06/M13 A3056 RMK AO2 SLP358 T10561133
KPKB 210253Z 36007KT 10SM CLR M05/M13 A3054 RMK AO2 SLP353 T10501128 52021